Time;durP1;ratioP1;P1;durP2;ratioP2;P2;SDS_P1;SDS_P2;PMS_P1;PMS_P2;Temp;Humidity;BMP_temperature;BMP_pressure;BME280_temperature;BME280_humidity;BME280_pressure;Samples;Min_cycle;Max_cycle;Signal;HPM_P1;HPM_P2
2022/11/10 00:00:05;;;;;;;18.70;10.90;;;12.40;1.00;;;;;;4974651;28;20169;-62
2022/11/10 00:02:31;;;;;;;12.60;11.30;;;12.40;1.00;;;;;;4955091;28;20178;-65
2022/11/10 00:04:57;;;;;;;30.57;11.07;;;12.50;1.00;;;;;;4954612;28;20481;-65
2022/11/10 00:07:27;;;;;;;14.50;9.53;;;12.40;1.00;;;;;;4955351;28;20808;-63
2022/11/10 00:09:53;;;;;;;12.70;6.10;;;12.40;1.00;;;;;;4955413;28;20185;-63
2022/11/10 00:12:20;;;;;;;6.10;4.50;;;12.40;1.00;;;;;;4954793;28;20493;-65
2022/11/10 00:17:30;;;;;;;5.00;4.37;;;12.30;1.00;;;;;;4955338;29;20468;-62
2022/11/10 00:19:56;;;;;;;10.83;5.23;;;12.30;1.00;;;;;;4954449;28;20410;-65
2022/11/10 00:22:22;;;;;;;9.33;4.10;;;12.30;1.00;;;;;;4954764;28;20167;-65
2022/11/10 00:24:48;;;;;;;6.47;4.47;;;12.30;1.00;;;;;;4954806;28;20418;-66
2022/11/10 00:27:13;;;;;;;8.23;4.93;;;12.30;1.00;;;;;;4954059;28;20170;-63
2022/11/10 00:29:42;;;;;;;5.90;4.77;;;12.40;1.00;;;;;;4955015;28;20186;-63
2022/11/10 00:32:08;;;;;;;8.53;5.60;;;12.30;1.00;;;;;;4954381;28;20170;-64
2022/11/10 00:34:34;;;;;;;8.63;4.10;;;12.30;1.00;;;;;;4954820;28;20434;-64
2022/11/10 00:36:59;;;;;;;5.33;4.07;;;12.30;1.00;;;;;;4953113;29;20201;-58
2022/11/10 00:39:25;;;;;;;5.73;3.33;;;12.30;1.00;;;;;;4954777;28;20904;-62
2022/11/10 00:41:51;;;;;;;9.23;4.97;;;12.30;1.00;;;;;;4954077;28;20655;-67
2022/11/10 00:44:16;;;;;;;12.07;4.20;;;12.40;1.00;;;;;;4955896;28;20190;-67
2022/11/10 00:46:42;;;;;;;4.60;3.83;;;12.40;1.00;;;;;;4959947;28;20174;-65
2022/11/10 00:49:08;;;;;;;7.03;3.57;;;12.40;1.00;;;;;;4954959;28;20606;-67
2022/11/10 00:51:33;;;;;;;19.20;4.00;;;12.40;1.00;;;;;;4955011;28;20492;-66
2022/11/10 00:53:59;;;;;;;5.37;2.67;;;12.30;1.00;;;;;;4954712;28;20229;-67
2022/11/10 00:56:25;;;;;;;3.67;2.70;;;12.30;1.00;;;;;;4954612;28;20182;-66
2022/11/10 00:58:51;;;;;;;9.00;3.50;;;12.30;1.00;;;;;;4954437;28;20210;-67
2022/11/10 01:01:21;;;;;;;5.63;2.80;;;12.30;1.00;;;;;;4962582;28;20405;-66
2022/11/10 01:03:46;;;;;;;14.20;3.17;;;12.30;1.00;;;;;;4973732;28;20253;-67
2022/11/10 01:06:14;;;;;;;2.93;1.90;;;12.20;1.00;;;;;;4973021;28;20505;-67
2022/11/10 01:08:41;;;;;;;11.73;2.40;;;12.20;1.00;;;;;;4973499;28;20209;-66
2022/11/10 01:11:11;;;;;;;4.93;2.07;;;12.20;1.00;;;;;;4972698;28;20891;-68
2022/11/10 01:13:37;;;;;;;6.23;2.17;;;12.20;1.00;;;;;;4973244;28;20409;-68
2022/11/10 01:16:05;;;;;;;6.43;2.50;;;12.20;1.00;;;;;;4973202;28;21006;-67
2022/11/10 01:18:30;;;;;;;7.50;2.47;;;12.20;1.00;;;;;;4973538;28;20205;-67
2022/11/10 01:20:56;;;;;;;6.27;2.27;;;12.30;1.00;;;;;;4972056;28;20481;-67
2022/11/10 01:23:21;;;;;;;4.17;1.63;;;12.30;1.00;;;;;;4973311;28;20174;-67
2022/11/10 01:25:47;;;;;;;2.50;2.07;;;12.30;1.00;;;;;;4971233;28;20678;-66
2022/11/10 01:28:13;;;;;;;2.70;1.30;;;12.20;1.00;;;;;;4973358;28;20170;-67
2022/11/10 01:30:39;;;;;;;5.87;1.90;;;12.20;1.00;;;;;;4972101;28;20185;-67
2022/11/10 01:33:04;;;;;;;6.33;2.47;;;12.30;1.00;;;;;;4973058;28;20177;-67
2022/11/10 01:35:30;;;;;;;5.10;2.03;;;12.30;1.00;;;;;;4972507;28;20648;-66
2022/11/10 01:37:56;;;;;;;4.97;2.73;;;12.30;1.00;;;;;;4972795;28;20201;-65
2022/11/10 01:40:21;;;;;;;7.40;3.23;;;12.30;1.00;;;;;;4972299;28;20633;-66
2022/11/10 01:42:52;;;;;;;9.60;3.10;;;12.30;1.00;;;;;;4972398;28;20170;-67
2022/11/10 01:45:23;;;;;;;7.27;2.60;;;12.20;1.00;;;;;;4972754;28;20706;-67
2022/11/10 01:47:56;;;;;;;30.93;4.73;;;12.20;1.00;;;;;;4973019;28;20794;-67
2022/11/10 01:50:26;;;;;;;18.30;3.43;;;12.20;1.00;;;;;;4972137;28;20871;-65
2022/11/10 01:52:56;;;;;;;14.17;4.40;;;12.20;1.00;;;;;;4972575;28;20452;-66
2022/11/10 01:55:23;;;;;;;24.77;4.57;;;12.30;1.00;;;;;;4972854;28;20579;-66
2022/11/10 01:57:49;;;;;;;8.43;4.00;;;12.30;1.00;;;;;;4972607;28;20969;-66
2022/11/10 02:00:17;;;;;;;25.27;5.50;;;12.30;1.00;;;;;;4971144;28;20467;-64
2022/11/10 02:02:42;;;;;;;14.10;4.10;;;12.30;1.00;;;;;;4972030;28;20496;-67
2022/11/10 02:05:08;;;;;;;10.30;3.57;;;12.20;1.00;;;;;;4972080;28;20620;-67
2022/11/10 02:07:34;;;;;;;10.97;4.03;;;12.20;1.00;;;;;;4972634;28;20220;-68
2022/11/10 02:10:02;;;;;;;7.47;3.80;;;12.20;1.00;;;;;;4972476;28;20170;-67
2022/11/10 02:12:35;;;;;;;10.83;4.20;;;12.20;1.00;;;;;;4971473;28;20413;-67
2022/11/10 02:15:13;;;;;;;7.73;4.13;;;12.20;1.00;;;;;;4971630;28;20859;-66
2022/11/10 02:17:39;;;;;;;6.07;3.30;;;12.20;1.00;;;;;;4972193;28;21005;-66
2022/11/10 02:20:09;;;;;;;6.67;4.37;;;12.20;1.00;;;;;;4971651;28;20824;-67
2022/11/10 02:22:36;;;;;;;7.30;4.37;;;12.20;1.00;;;;;;4971701;28;20408;-64
2022/11/10 02:25:02;;;;;;;11.10;5.17;;;12.20;1.00;;;;;;4970418;28;20877;-67
2022/11/10 02:27:27;;;;;;;4.90;4.03;;;12.20;1.00;;;;;;4972562;28;20906;-65
2022/11/10 02:29:53;;;;;;;5.23;4.73;;;12.20;1.00;;;;;;4971758;28;20413;-65
2022/11/10 02:32:19;;;;;;;17.10;6.00;;;12.20;1.00;;;;;;4971312;28;20240;-65
2022/11/10 02:34:44;;;;;;;6.13;4.60;;;12.20;1.00;;;;;;4971703;28;20900;-65
2022/11/10 02:37:10;;;;;;;14.63;5.17;;;12.20;1.00;;;;;;4971832;28;20209;-65
2022/11/10 02:39:36;;;;;;;8.37;5.10;;;12.20;1.00;;;;;;4971775;28;20285;-66
2022/11/10 02:42:03;;;;;;;6.23;5.23;;;12.10;1.00;;;;;;4971056;28;20180;-65
2022/11/10 02:44:29;;;;;;;14.63;5.23;;;12.10;1.00;;;;;;4971730;28;20433;-66
2022/11/10 02:46:55;;;;;;;5.60;4.43;;;12.10;1.00;;;;;;4971653;28;20800;-66
2022/11/10 02:49:20;;;;;;;7.83;4.53;;;12.00;1.00;;;;;;4971593;28;20166;-65
2022/11/10 02:51:46;;;;;;;5.00;4.50;;;12.00;1.00;;;;;;4970584;28;20198;-66
2022/11/10 02:54:12;;;;;;;6.70;4.60;;;12.00;1.00;;;;;;4971598;28;20211;-66
2022/11/10 02:56:37;;;;;;;5.00;4.50;;;11.90;1.00;;;;;;4971411;28;20196;-63
2022/11/10 02:59:03;;;;;;;5.57;4.30;;;11.90;1.00;;;;;;4971837;28;20200;-66
2022/11/10 03:01:29;;;;;;;10.30;4.87;;;12.00;1.00;;;;;;4970704;28;20174;-66
2022/11/10 03:03:55;;;;;;;8.43;4.43;;;12.10;1.00;;;;;;4971559;28;20488;-66
2022/11/10 03:06:20;;;;;;;6.87;4.43;;;12.00;1.00;;;;;;4971216;28;20161;-66
2022/11/10 03:08:46;;;;;;;11.50;5.00;;;12.00;1.00;;;;;;4971680;28;20544;-66
2022/11/10 03:11:12;;;;;;;6.37;4.90;;;12.00;1.00;;;;;;4970857;28;20248;-65
2022/11/10 03:13:38;;;;;;;8.37;5.43;;;11.90;1.00;;;;;;4971653;28;20189;-65
2022/11/10 03:16:04;;;;;;;12.10;5.00;;;11.90;1.00;;;;;;4971275;28;20236;-64
2022/11/10 03:18:29;;;;;;;7.90;4.97;;;11.90;1.00;;;;;;4971546;28;20200;-66
2022/11/10 03:20:55;;;;;;;10.10;4.50;;;12.00;1.00;;;;;;4970376;28;20927;-63
2022/11/10 03:23:20;;;;;;;5.80;4.10;;;12.00;1.00;;;;;;4971631;28;20675;-65
2022/11/10 03:25:46;;;;;;;8.70;3.73;;;12.00;1.00;;;;;;4968637;28;20693;-65
2022/11/10 03:28:12;;;;;;;6.77;3.80;;;12.00;1.00;;;;;;4971204;28;20173;-62
2022/11/10 03:30:38;;;;;;;9.07;4.80;;;12.00;1.00;;;;;;4970395;28;20177;-63
2022/11/10 03:33:05;;;;;;;5.03;4.27;;;11.90;1.00;;;;;;4971422;28;20432;-63
2022/11/10 03:35:30;;;;;;;11.20;4.90;;;12.00;1.00;;;;;;4970843;28;20420;-65
2022/11/10 03:37:56;;;;;;;5.83;4.80;;;12.00;1.00;;;;;;4971293;28;20603;-64
2022/11/10 03:40:22;;;;;;;4.40;4.00;;;12.00;1.00;;;;;;4970902;28;20374;-64
2022/11/10 03:42:47;;;;;;;8.33;4.70;;;12.00;1.00;;;;;;4970501;28;20170;-65
2022/11/10 03:45:14;;;;;;;14.93;5.57;;;12.00;1.00;;;;;;4971063;28;20315;-64
2022/11/10 03:47:43;;;;;;;8.50;4.60;;;12.00;1.00;;;;;;4971237;28;20540;-64
2022/11/10 03:50:09;;;;;;;5.00;4.50;;;11.90;1.00;;;;;;4970756;28;20812;-65
2022/11/10 03:52:37;;;;;;;10.13;5.03;;;11.90;1.00;;;;;;4970468;28;20458;-63
2022/11/10 03:55:02;;;;;;;11.80;5.23;;;11.90;1.00;;;;;;4971101;28;20221;-67
2022/11/10 03:57:28;;;;;;;11.97;6.30;;;11.90;1.00;;;;;;4970988;28;20463;-67
2022/11/10 03:59:54;;;;;;;19.97;5.90;;;11.90;1.00;;;;;;4970691;28;20345;-67
2022/11/10 04:02:20;;;;;;;20.77;6.33;;;11.80;1.00;;;;;;4952889;28;20417;-67
2022/11/10 04:10:27;;;;;;;10.60;5.63;;;11.80;1.00;;;;;;4949289;28;20414;-67
2022/11/10 04:15:43;;;;;;;7.67;4.63;;;11.80;1.00;;;;;;4951258;29;20201;-68
2022/11/10 04:18:25;;;;;;;14.50;6.13;;;11.70;1.00;;;;;;4951319;28;20461;-67
2022/11/10 04:20:58;;;;;;;11.07;5.70;;;11.70;1.00;;;;;;4950161;28;20414;-67
2022/11/10 04:23:27;;;;;;;8.27;5.67;;;11.70;1.00;;;;;;4951393;28;20409;-67
2022/11/10 04:28:38;;;;;;;21.40;5.60;;;11.70;1.00;;;;;;4951760;29;20444;-67
2022/11/10 04:31:04;;;;;;;15.13;5.43;;;11.70;1.00;;;;;;4950612;28;20895;-67
2022/11/10 04:33:30;;;;;;;8.53;4.10;;;11.70;1.00;;;;;;4951248;28;20418;-67
2022/11/10 04:35:56;;;;;;;8.50;4.80;;;11.60;1.00;;;;;;4950936;29;20426;-66
2022/11/10 04:38:21;;;;;;;6.90;4.63;;;11.60;1.00;;;;;;4952028;28;20198;-67
2022/11/10 04:40:47;;;;;;;24.27;5.50;;;11.50;1.00;;;;;;4953824;29;20212;-67
2022/11/10 04:43:13;;;;;;;9.60;4.33;;;11.40;1.00;;;;;;4954861;29;20171;-66
2022/11/10 04:45:38;;;;;;;11.80;4.30;;;11.40;1.00;;;;;;4954571;29;20257;-67
2022/11/10 04:48:04;;;;;;;4.57;4.00;;;11.40;1.00;;;;;;4955025;28;20190;-67
2022/11/10 04:50:30;;;;;;;6.90;4.13;;;11.40;1.00;;;;;;4953504;28;20261;-67
2022/11/10 04:52:56;;;;;;;6.20;4.00;;;11.30;1.00;;;;;;4954732;29;20210;-67
2022/11/10 04:55:21;;;;;;;9.23;4.80;;;11.30;1.00;;;;;;4954080;28;20232;-65
2022/11/10 04:57:47;;;;;;;11.23;4.90;;;11.30;1.00;;;;;;4954420;29;20294;-66
2022/11/10 05:00:13;;;;;;;13.63;6.57;;;11.30;1.00;;;;;;4954484;28;20178;-64
2022/11/10 05:02:39;;;;;;;6.33;4.87;;;11.30;1.00;;;;;;4973530;28;20261;-65
2022/11/10 05:05:05;;;;;;;9.83;4.77;;;11.30;1.00;;;;;;4973363;28;20528;-66
2022/11/10 05:07:31;;;;;;;18.70;6.60;;;11.30;1.00;;;;;;4985291;28;20176;-66
2022/11/10 05:09:56;;;;;;;6.57;4.60;;;11.20;1.00;;;;;;4976249;28;20413;-64
2022/11/10 05:12:22;;;;;;;23.07;4.90;;;11.20;1.00;;;;;;4973268;28;20178;-67
2022/11/10 05:14:48;;;;;;;7.67;3.80;;;11.20;1.00;;;;;;4973825;28;20225;-67
2022/11/10 05:17:13;;;;;;;7.33;4.40;;;11.10;1.00;;;;;;4973694;28;20572;-68
2022/11/10 05:19:39;;;;;;;10.67;7.00;;;11.10;1.00;;;;;;4972207;28;20641;-67
2022/11/10 05:22:06;;;;;;;13.93;4.50;;;11.10;1.00;;;;;;4960261;28;20269;-66
2022/11/10 05:24:32;;;;;;;16.20;5.37;;;11.10;1.00;;;;;;4972719;28;20205;-66
2022/11/10 05:26:58;;;;;;;17.50;4.77;;;11.10;1.00;;;;;;4963762;28;20897;-65
2022/11/10 05:29:24;;;;;;;9.50;4.57;;;11.10;1.00;;;;;;4967198;28;20461;-65
2022/11/10 05:31:49;;;;;;;11.10;4.70;;;11.00;1.00;;;;;;4970456;28;20261;-67
2022/11/10 05:34:15;;;;;;;6.17;4.00;;;11.00;1.00;;;;;;4963502;28;20206;-62
2022/11/10 05:36:41;;;;;;;13.23;5.20;;;11.00;1.00;;;;;;4960150;28;20181;-67
2022/11/10 05:39:06;;;;;;;6.00;3.80;;;11.00;1.00;;;;;;4970407;28;20213;-62
2022/11/10 05:41:32;;;;;;;8.73;4.00;;;10.90;1.00;;;;;;4969464;28;20196;-67
2022/11/10 05:43:57;;;;;;;4.30;3.50;;;10.90;1.00;;;;;;4971199;28;20184;-66
2022/11/10 05:46:24;;;;;;;12.33;4.70;;;10.90;1.00;;;;;;4970787;28;20177;-64
2022/11/10 05:48:50;;;;;;;25.87;5.90;;;10.80;1.00;;;;;;4970635;28;20182;-67
2022/11/10 05:51:16;;;;;;;4.43;4.03;;;10.80;1.00;;;;;;4968161;28;20960;-67
2022/11/10 05:53:41;;;;;;;27.10;6.30;;;10.80;1.00;;;;;;4970423;28;20249;-67
2022/11/10 05:56:07;;;;;;;8.07;4.20;;;10.80;1.00;;;;;;4970373;28;20216;-67
2022/11/10 05:58:33;;;;;;;7.23;3.67;;;10.70;1.00;;;;;;4970062;28;20751;-67
2022/11/10 06:00:58;;;;;;;29.07;5.57;;;10.60;1.00;;;;;;4955817;28;20365;-66
2022/11/10 06:03:24;;;;;;;9.00;4.00;;;10.60;1.00;;;;;;4970201;28;20197;-67
2022/11/10 06:05:50;;;;;;;19.80;4.50;;;10.50;1.00;;;;;;4970206;28;20236;-67
2022/11/10 06:08:16;;;;;;;8.87;4.20;;;10.50;1.00;;;;;;4970220;28;20193;-67
2022/11/10 06:10:42;;;;;;;6.27;3.80;;;10.40;1.00;;;;;;4969097;28;20182;-62
2022/11/10 06:13:08;;;;;;;11.40;4.20;;;10.40;1.00;;;;;;4971428;28;20560;-66
2022/11/10 06:15:34;;;;;;;24.77;5.50;;;10.40;1.00;;;;;;4968605;28;20313;-65
2022/11/10 06:17:59;;;;;;;36.37;6.40;;;10.40;1.00;;;;;;4958756;28;20214;-64
2022/11/10 06:20:25;;;;;;;84.70;10.87;;;10.40;1.00;;;;;;4962839;28;20673;-66
2022/11/10 06:23:00;;;;;;;53.83;12.00;;;10.40;1.00;;;;;;4968445;28;20236;-64
2022/11/10 06:25:27;;;;;;;19.93;8.63;;;10.50;1.00;;;;;;4967341;28;20192;-64
2022/11/10 06:27:53;;;;;;;16.60;7.30;;;10.50;1.00;;;;;;4961781;28;20492;-67
2022/11/10 06:30:19;;;;;;;11.60;5.20;;;10.50;1.00;;;;;;4960418;28;20461;-64
2022/11/10 06:32:45;;;;;;;7.97;5.77;;;10.50;1.00;;;;;;4962542;28;20543;-66
2022/11/10 06:35:10;;;;;;;30.10;7.30;;;10.50;1.00;;;;;;4964304;28;20434;-65
2022/11/10 06:37:39;;;;;;;61.97;10.87;;;10.60;1.00;;;;;;4963700;28;20673;-67
2022/11/10 06:40:07;;;;;;;30.13;7.27;;;10.60;1.00;;;;;;4967468;28;20193;-67
2022/11/10 06:42:33;;;;;;;32.00;6.77;;;10.60;1.00;;;;;;4965171;28;20515;-66
2022/11/10 06:44:59;;;;;;;43.67;7.57;;;10.60;1.00;;;;;;4967298;28;20456;-65
2022/11/10 06:47:26;;;;;;;25.20;5.90;;;10.60;1.00;;;;;;4960518;28;20414;-66
2022/11/10 06:49:52;;;;;;;24.83;7.00;;;10.60;1.00;;;;;;4968673;28;20639;-66
2022/11/10 06:52:17;;;;;;;18.20;5.50;;;11.60;1.00;;;;;;4957992;28;20492;-66
2022/11/10 06:54:43;;;;;;;50.77;8.00;;;13.10;1.00;;;;;;4961071;28;20225;-63
2022/11/10 06:57:09;;;;;;;15.00;5.00;;;14.50;99.90;;;;;;4959644;28;20197;-64
2022/11/10 06:59:34;;;;;;;16.33;3.90;;;15.40;99.90;;;;;;4965905;28;20568;-67
2022/11/10 07:02:00;;;;;;;44.53;6.73;;;16.20;1.00;;;;;;4962415;28;20174;-67
2022/11/10 07:04:26;;;;;;;27.17;4.93;;;17.00;1.00;;;;;;4962768;28;20205;-67
2022/11/10 07:06:51;;;;;;;24.47;6.17;;;16.70;1.00;;;;;;4962089;28;20237;-62
2022/11/10 07:09:17;;;;;;;19.23;4.70;;;16.80;1.00;;;;;;4953382;28;20258;-63
2022/11/10 07:11:43;;;;;;;32.47;6.67;;;17.60;1.00;;;;;;4954202;28;20201;-64
2022/11/10 07:14:09;;;;;;;11.43;4.13;;;17.00;99.90;;;;;;4969447;28;20282;-67
2022/11/10 07:16:35;;;;;;;30.67;4.63;;;16.10;1.00;;;;;;4968510;28;20213;-67
2022/11/10 07:19:00;;;;;;;241.23;23.90;;;14.90;1.00;;;;;;4968965;28;20297;-67
2022/11/10 07:21:26;;;;;;;63.80;7.93;;;14.00;1.00;;;;;;4967783;28;20170;-67
2022/11/10 07:23:52;;;;;;;58.50;9.80;;;13.50;1.00;;;;;;4969154;28;20170;-66
2022/11/10 07:26:17;;;;;;;17.67;7.60;;;13.00;1.00;;;;;;4968786;28;20198;-64
2022/11/10 07:28:43;;;;;;;35.07;7.83;;;13.10;1.00;;;;;;4969481;28;20173;-65
2022/11/10 07:31:09;;;;;;;29.87;8.90;;;13.00;1.00;;;;;;4968252;28;20182;-67
2022/11/10 07:33:34;;;;;;;24.37;8.60;;;12.80;28.50;;;;;;4969164;28;20249;-67
2022/11/10 07:36:02;;;;;;;24.87;7.67;;;12.70;99.90;;;;;;4968682;28;20328;-66
2022/11/10 07:38:28;;;;;;;22.77;6.40;;;12.40;99.90;;;;;;4967056;28;20286;-66
2022/11/10 07:40:54;;;;;;;7.97;5.10;;;12.20;99.90;;;;;;4966410;28;20576;-66
2022/11/10 07:43:22;;;;;;;12.57;4.73;;;12.30;1.00;;;;;;4966976;28;20180;-66
2022/11/10 07:45:49;;;;;;;5.33;3.80;;;12.60;99.90;;;;;;4964996;28;20453;-66
2022/11/10 07:48:15;;;;;;;8.87;4.13;;;12.50;99.90;;;;;;4968356;28;20464;-66
2022/11/10 07:50:40;;;;;;;5.13;4.10;;;12.40;99.90;;;;;;4968397;28;20601;-65
2022/11/10 07:53:12;;;;;;;7.83;4.13;;;12.70;99.90;;;;;;4968060;28;20468;-66
2022/11/10 07:55:39;;;;;;;8.83;4.70;;;12.90;99.90;;;;;;4970317;28;20217;-65
2022/11/10 07:58:05;;;;;;;10.40;5.90;;;13.10;99.90;;;;;;4968426;28;20516;-66
2022/11/10 08:00:31;;;;;;;26.57;6.13;;;13.10;99.90;;;;;;4966513;28;20813;-66
2022/11/10 08:03:02;;;;;;;92.27;11.60;;;13.50;99.90;;;;;;4968884;28;20801;-66
2022/11/10 08:05:28;;;;;;;76.17;11.93;;;13.50;56.00;;;;;;4962355;28;20461;-67
2022/11/10 08:07:54;;;;;;;28.30;7.27;;;13.30;44.90;;;;;;4959844;28;20463;-67
2022/11/10 08:10:19;;;;;;;27.30;6.37;;;12.90;99.90;;;;;;4967695;28;20887;-68
2022/11/10 08:12:51;;;;;;;23.93;6.97;;;12.60;99.90;;;;;;4959280;28;20182;-66
2022/11/10 08:15:17;;;;;;;20.40;6.07;;;12.40;1.00;;;;;;4971599;28;20252;-67
2022/11/10 08:17:43;;;;;;;16.73;6.37;;;12.30;1.00;;;;;;4962412;28;20468;-65
2022/11/10 08:20:09;;;;;;;23.63;8.33;;;12.40;99.90;;;;;;4954299;29;20178;-64
2022/11/10 08:22:34;;;;;;;20.20;7.37;;;12.30;99.90;;;;;;4954618;28;20178;-65
2022/11/10 08:25:00;;;;;;;58.27;11.17;;;12.40;99.90;;;;;;4954903;29;20430;-67
2022/11/10 08:27:25;;;;;;;33.57;9.30;;;12.40;99.90;;;;;;4955213;29;20265;-66
2022/11/10 08:29:51;;;;;;;37.27;10.97;;;12.60;99.90;;;;;;4966131;28;20188;-65
2022/11/10 08:32:17;;;;;;;36.87;10.00;;;12.80;99.90;;;;;;4971541;28;20213;-67
2022/11/10 08:34:42;;;;;;;11.70;7.87;;;12.70;50.00;;;;;;4969321;28;20241;-67
2022/11/10 08:37:08;;;;;;;23.40;9.63;;;12.50;99.90;;;;;;4969930;28;20525;-66
2022/11/10 08:39:34;;;;;;;30.57;9.23;;;12.40;1.00;;;;;;4972432;28;20224;-67
2022/11/10 08:41:59;;;;;;;15.30;7.60;;;12.50;1.00;;;;;;4971327;28;20205;-67
2022/11/10 08:44:26;;;;;;;29.03;10.30;;;12.40;1.00;;;;;;4971096;28;20229;-68
2022/11/10 08:46:51;;;;;;;31.40;9.40;;;12.40;11.70;;;;;;4972234;28;20644;-65
2022/11/10 08:49:17;;;;;;;13.00;7.77;;;12.30;34.00;;;;;;4971904;28;20472;-66
2022/11/10 08:51:43;;;;;;;26.60;9.97;;;12.20;1.00;;;;;;4970890;28;20206;-67
2022/11/10 08:54:08;;;;;;;103.53;17.97;;;12.10;1.00;;;;;;4970202;28;20177;-66
2022/11/10 08:56:34;;;;;;;114.57;17.63;;;12.00;1.00;;;;;;4971684;28;20192;-67
2022/11/10 08:59:00;;;;;;;19.70;11.13;;;12.00;1.00;;;;;;4972881;28;20568;-66
2022/11/10 09:01:25;;;;;;;44.10;10.13;;;11.90;1.00;;;;;;4969389;28;20776;-68
2022/11/10 09:03:51;;;;;;;12.70;8.87;;;12.00;99.90;;;;;;4969836;28;20189;-67
2022/11/10 09:06:17;;;;;;;10.23;9.10;;;12.20;1.00;;;;;;4965196;28;20591;-66
2022/11/10 09:08:42;;;;;;;38.13;10.93;;;12.40;1.00;;;;;;4962327;28;20186;-67
2022/11/10 09:11:08;;;;;;;27.90;10.40;;;12.60;99.90;;;;;;4969507;28;20643;-67
2022/11/10 09:13:34;;;;;;;59.70;13.27;;;12.50;1.00;;;;;;4965238;28;20190;-70
2022/11/10 09:16:01;;;;;;;81.07;15.60;;;12.60;1.00;;;;;;4966958;28;20585;-67
2022/11/10 09:18:26;;;;;;;84.00;15.47;;;13.00;48.40;;;;;;4968342;28;20217;-67
2022/11/10 09:20:52;;;;;;;36.40;10.53;;;13.00;1.00;;;;;;4959489;28;20433;-69
2022/11/10 09:23:18;;;;;;;50.70;13.00;;;12.90;1.00;;;;;;4970480;28;20570;-67
2022/11/10 09:25:49;;;;;;;65.33;12.63;;;12.80;1.00;;;;;;4970774;28;20205;-68
2022/11/10 09:28:15;;;;;;;24.60;7.90;;;13.20;1.00;;;;;;4967841;28;20543;-69
2022/11/10 09:30:44;;;;;;;28.40;10.00;;;14.80;99.90;;;;;;4968567;28;20451;-67
2022/11/10 09:33:09;;;;;;;111.97;17.53;;;15.80;1.00;;;;;;4967386;28;20472;-68
2022/11/10 09:35:35;;;;;;;57.20;10.70;;;16.20;76.90;;;;;;4969306;28;21099;-68
2022/11/10 09:38:01;;;;;;;170.63;24.87;;;16.00;1.00;;;;;;4970232;28;20212;-68
2022/11/10 09:41:07;;;;;;;163.43;23.73;;;15.90;1.00;;;;;;4969233;28;20313;-66
2022/11/10 09:43:56;;;;;;;67.73;13.63;;;15.50;1.00;;;;;;4959800;28;20269;-69
2022/11/10 09:46:35;;;;;;;15.93;8.10;;;15.50;1.00;;;;;;4961486;28;20872;-67
2022/11/10 09:49:17;;;;;;;18.30;7.90;;;15.50;1.00;;;;;;4970500;28;20428;-68
2022/11/10 09:51:44;;;;;;;13.00;7.50;;;15.60;1.00;;;;;;4959476;28;20453;-65
2022/11/10 09:54:27;;;;;;;22.73;8.80;;;15.50;1.00;;;;;;4968896;28;20460;-67
2022/11/10 09:56:59;;;;;;;18.80;10.60;;;15.40;1.00;;;;;;4969732;23;20587;-69
2022/11/10 09:59:31;;;;;;;31.83;10.00;;;15.50;1.00;;;;;;4951794;28;20430;-69
2022/11/10 10:02:04;;;;;;;30.90;11.87;;;15.60;1.00;;;;;;4953399;28;20438;-70
2022/11/10 10:04:38;;;;;;;21.53;9.40;;;15.90;1.00;;;;;;4951444;28;20528;-69
2022/11/10 10:07:33;;;;;;;101.50;17.80;;;15.70;1.00;;;;;;4934441;29;20490;-68
2022/11/10 10:10:12;;;;;;;74.90;21.73;;;16.00;1.00;;;;;;4931560;29;20845;-68
2022/11/10 10:13:21;;;;;;;42.33;17.23;;;16.10;1.00;;;;;;4920972;29;20455;-69
2022/11/10 10:15:53;;;;;;;29.33;15.47;;;16.20;1.00;;;;;;4921852;29;20606;-69
2022/11/10 10:18:43;;;;;;;40.43;16.57;;;16.30;1.00;;;;;;4931315;29;20469;-68
2022/11/10 10:21:45;;;;;;;51.50;14.57;;;16.10;1.00;;;;;;4926620;29;20521;-68
2022/11/10 10:24:16;;;;;;;129.37;23.67;;;16.40;1.00;;;;;;4929999;29;20779;-70
2022/11/10 10:26:52;;;;;;;133.57;22.47;;;16.40;1.00;;;;;;4922640;29;20510;-69
2022/11/10 10:29:23;;;;;;;69.57;13.70;;;16.50;1.00;;;;;;4921293;29;20430;-69
2022/11/10 10:31:51;;;;;;;59.00;11.20;;;16.70;1.00;;;;;;4930535;29;20963;-69
2022/11/10 10:34:21;;;;;;;43.57;10.23;;;16.70;1.00;;;;;;4930943;29;20513;-69
2022/11/10 10:36:46;;;;;;;97.27;16.87;;;16.90;1.00;;;;;;4929106;29;20540;-69
2022/11/10 10:39:20;;;;;;;283.27;33.10;;;17.00;1.00;;;;;;4928888;29;21022;-68
2022/11/10 10:41:46;;;;;;;125.87;21.73;;;17.20;1.00;;;;;;4925588;28;20201;-68
2022/11/10 10:44:17;;;;;;;37.77;9.93;;;17.10;1.00;;;;;;4927684;29;20988;-69
2022/11/10 10:47:09;;;;;;;23.77;9.10;;;17.20;1.00;;;;;;4927025;29;20497;-70
2022/11/10 10:49:37;;;;;;;13.87;8.37;;;17.30;1.00;;;;;;4922703;29;20442;-69
2022/11/10 10:52:13;;;;;;;15.20;8.40;;;17.40;1.00;;;;;;4923348;29;20458;-70
2022/11/10 10:54:39;;;;;;;22.47;8.97;;;17.50;1.00;;;;;;4930480;29;20426;-69
2022/11/10 10:57:24;;;;;;;9.90;7.50;;;17.60;1.00;;;;;;4930440;29;20521;-69
2022/11/10 10:59:50;;;;;;;27.20;10.60;;;17.50;1.00;;;;;;4926956;29;20431;-68
2022/11/10 11:02:30;;;;;;;56.03;14.00;;;17.40;1.00;;;;;;4930126;29;20471;-69
2022/11/10 11:05:15;;;;;;;54.70;12.60;;;17.50;1.00;;;;;;4920262;29;20464;-68
2022/11/10 11:07:54;;;;;;;224.20;27.53;;;17.50;1.00;;;;;;4930456;29;20445;-70
2022/11/10 11:10:32;;;;;;;356.30;39.97;;;17.60;1.00;;;;;;4929722;29;20442;-71
2022/11/10 11:13:22;;;;;;;693.60;74.30;;;17.60;1.00;;;;;;4933982;29;21574;-71
2022/11/10 11:16:03;;;;;;;368.43;44.07;;;17.70;1.00;;;;;;4923886;29;20839;-73
2022/11/10 11:18:30;;;;;;;200.20;27.07;;;17.90;1.00;;;;;;4918758;29;20470;-67
2022/11/10 11:21:18;;;;;;;114.50;16.47;;;17.80;1.00;;;;;;4936071;29;20435;-67
2022/11/10 11:24:07;;;;;;;141.10;19.07;;;17.90;1.00;;;;;;4932526;29;20443;-68
2022/11/10 11:27:11;;;;;;;123.20;16.47;;;18.00;1.00;;;;;;4928336;29;20733;-68
2022/11/10 11:30:04;;;;;;;86.87;12.07;;;18.00;1.00;;;;;;4915277;29;20462;-67
2022/11/10 11:32:57;;;;;;;55.13;8.57;;;18.10;99.90;;;;;;4928879;29;20505;-68
2022/11/10 11:35:32;;;;;;;48.93;8.57;;;17.90;99.90;;;;;;4935036;29;20434;-68
2022/11/10 11:38:10;;;;;;;42.23;7.03;;;18.00;99.90;;;;;;4925861;29;20983;-68
2022/11/10 11:40:57;;;;;;;24.60;5.10;;;18.00;99.90;;;;;;4925950;29;20438;-67
2022/11/10 11:43:51;;;;;;;50.07;7.50;;;18.10;99.90;;;;;;4932249;29;20423;-68
2022/11/10 11:46:46;;;;;;;16.53;4.17;;;18.10;99.90;;;;;;4926649;29;20446;-69
2022/11/10 11:49:30;;;;;;;122.93;15.43;;;17.80;99.90;;;;;;4932167;29;21165;-67
2022/11/10 11:52:14;;;;;;;33.73;6.87;;;17.80;99.90;;;;;;4933404;29;20431;-66
2022/11/10 11:54:50;;;;;;;12.40;2.93;;;17.90;99.90;;;;;;4936304;29;20552;-68
2022/11/10 11:57:23;;;;;;;61.47;9.00;;;17.80;99.90;;;;;;4926983;28;20463;-67
2022/11/10 12:00:29;;;;;;;12.10;3.37;;;17.70;99.90;;;;;;4931115;29;20768;-68
2022/11/10 12:03:28;;;;;;;16.67;4.00;;;17.60;99.90;;;;;;4891711;29;20459;-67
2022/11/10 12:06:08;;;;;;;7.50;2.60;;;17.70;99.90;;;;;;4888475;29;21204;-67
2022/11/10 12:08:46;;;;;;;14.17;2.80;;;17.60;99.90;;;;;;4890561;29;20872;-67
2022/11/10 12:11:30;;;;;;;15.83;3.53;;;17.50;99.90;;;;;;4888703;29;20436;-68
2022/11/10 12:14:28;;;;;;;61.37;10.90;;;17.40;99.90;;;;;;4890373;29;20802;-67
2022/11/10 12:17:19;;;;;;;29.33;5.10;;;17.50;99.90;;;;;;4881822;29;20654;-70
2022/11/10 12:20:12;;;;;;;27.40;5.07;;;17.50;99.90;;;;;;4887607;29;20472;-68
2022/11/10 12:22:38;;;;;;;35.53;4.60;;;17.30;99.90;;;;;;4892949;29;20614;-68
2022/11/10 12:25:25;;;;;;;25.17;3.90;;;17.40;99.90;;;;;;4891043;29;20551;-68
2022/11/10 12:28:02;;;;;;;21.50;3.60;;;17.20;99.90;;;;;;4891952;29;20192;-67
2022/11/10 12:30:30;;;;;;;18.40;3.70;;;17.00;99.90;;;;;;4888808;29;20479;-67
2022/11/10 12:33:26;;;;;;;16.53;4.13;;;17.00;99.90;;;;;;4893755;29;20866;-68
2022/11/10 12:35:54;;;;;;;149.83;15.50;;;17.10;99.90;;;;;;4918515;29;20946;-68
2022/11/10 12:38:25;;;;;;;71.87;8.00;;;17.10;99.90;;;;;;4931768;29;20466;-69
2022/11/10 12:41:06;;;;;;;22.70;3.97;;;16.90;99.90;;;;;;4927223;29;20427;-68
2022/11/10 12:43:45;;;;;;;20.70;3.87;;;17.00;99.90;;;;;;4926830;29;20434;-68
2022/11/10 12:46:12;;;;;;;15.37;3.70;;;17.20;99.90;;;;;;4929609;29;21000;-69
2022/11/10 12:49:17;;;;;;;8.00;2.77;;;17.30;99.90;;;;;;4938689;29;20458;-70
2022/11/10 12:52:07;;;;;;;16.90;3.17;;;17.20;99.90;;;;;;4908689;29;20525;-69
2022/11/10 12:54:34;;;;;;;9.03;2.00;;;17.20;99.90;;;;;;4927773;29;20410;-69
2022/11/10 12:57:10;;;;;;;12.07;2.40;;;17.20;99.90;;;;;;4926667;29;20522;-69
2022/11/10 12:59:39;;;;;;;5.13;2.03;;;17.10;99.90;;;;;;4932946;28;20450;-69
2022/11/10 13:02:54;;;;;;;9.67;2.73;;;17.00;99.90;;;;;;4930796;29;20443;-69
2022/11/10 13:05:40;;;;;;;44.47;5.80;;;16.90;99.90;;;;;;4891461;29;21068;-69
2022/11/10 13:08:43;;;;;;;83.80;10.67;;;16.80;99.90;;;;;;4929039;29;20869;-69
2022/11/10 13:11:12;;;;;;;185.47;18.57;;;16.70;99.90;;;;;;4930598;29;20511;-69
2022/11/10 13:13:50;;;;;;;125.53;13.20;;;16.80;99.90;;;;;;4922867;29;20532;-69